sensor_id;sensor_type;location;lat;lon;timestamp;pressure;altitude;pressure_sealevel;temperature;humidity
73671;BME280;61968;48.178;11.566;2022-08-21T00:00:38;95873.63;;;16.50;53.68
73671;BME280;61968;48.178;11.566;2022-08-21T00:03:06;95871.47;;;16.47;53.81
73671;BME280;61968;48.178;11.566;2022-08-21T00:05:44;95868.25;;;16.30;54.61
73671;BME280;61968;48.178;11.566;2022-08-21T00:08:11;95878.13;;;16.35;54.09
73671;BME280;61968;48.178;11.566;2022-08-21T00:10:38;95873.31;;;16.31;54.48
73671;BME280;61968;48.178;11.566;2022-08-21T00:13:06;95874.38;;;16.36;54.29
73671;BME280;61968;48.178;11.566;2022-08-21T00:15:35;95880.25;;;16.22;54.36
73671;BME280;61968;48.178;11.566;2022-08-21T00:18:03;95882.34;;;16.10;54.68
73671;BME280;61968;48.178;11.566;2022-08-21T00:20:30;95873.22;;;15.96;55.10
73671;BME280;61968;48.178;11.566;2022-08-21T00:22:58;95872.72;;;16.04;54.70
73671;BME280;61968;48.178;11.566;2022-08-21T00:25:25;95881.81;;;16.13;54.34
73671;BME280;61968;48.178;11.566;2022-08-21T00:27:52;95875.66;;;16.18;54.35
73671;BME280;61968;48.178;11.566;2022-08-21T00:30:20;95872.22;;;16.17;54.08
73671;BME280;61968;48.178;11.566;2022-08-21T00:32:47;95872.19;;;16.07;54.18
73671;BME280;61968;48.178;11.566;2022-08-21T00:35:16;95870.06;;;16.14;54.12
73671;BME280;61968;48.178;11.566;2022-08-21T00:37:43;95864.75;;;16.19;53.84
73671;BME280;61968;48.178;11.566;2022-08-21T00:40:14;95865.56;;;16.25;53.79
73671;BME280;61968;48.178;11.566;2022-08-21T00:42:42;95868.25;;;16.25;53.72
73671;BME280;61968;48.178;11.566;2022-08-21T00:45:10;95868.50;;;16.28;53.36
73671;BME280;61968;48.178;11.566;2022-08-21T00:47:37;95867.41;;;16.09;53.62
73671;BME280;61968;48.178;11.566;2022-08-21T00:50:05;95868.19;;;16.04;53.95
73671;BME280;61968;48.178;11.566;2022-08-21T00:52:34;95864.22;;;16.12;53.45
73671;BME280;61968;48.178;11.566;2022-08-21T00:55:03;95869.03;;;16.15;53.26
73671;BME280;61968;48.178;11.566;2022-08-21T00:57:37;95871.91;;;16.08;53.67
73671;BME280;61968;48.178;11.566;2022-08-21T01:00:07;95860.72;;;16.06;53.63
73671;BME280;61968;48.178;11.566;2022-08-21T01:02:35;95858.81;;;16.02;53.59
73671;BME280;61968;48.178;11.566;2022-08-21T01:05:02;95853.25;;;16.03;53.75
73671;BME280;61968;48.178;11.566;2022-08-21T01:07:29;95858.06;;;16.12;53.22
73671;BME280;61968;48.178;11.566;2022-08-21T01:09:56;95853.16;;;15.88;53.66
73671;BME280;61968;48.178;11.566;2022-08-21T01:12:23;95849.41;;;15.79;54.07
73671;BME280;61968;48.178;11.566;2022-08-21T01:14:52;95849.94;;;15.86;53.89
73671;BME280;61968;48.178;11.566;2022-08-21T01:17:19;95848.88;;;15.87;53.72
73671;BME280;61968;48.178;11.566;2022-08-21T01:19:47;95846.41;;;15.70;54.28
73671;BME280;61968;48.178;11.566;2022-08-21T01:22:14;95849.09;;;15.75;54.19
73671;BME280;61968;48.178;11.566;2022-08-21T01:24:41;95843.25;;;15.78;53.93
73671;BME280;61968;48.178;11.566;2022-08-21T01:27:07;95840.88;;;15.87;53.58
73671;BME280;61968;48.178;11.566;2022-08-21T01:29:38;95844.38;;;15.88;53.42
73671;BME280;61968;48.178;11.566;2022-08-21T01:32:09;95844.88;;;15.84;53.09
73671;BME280;61968;48.178;11.566;2022-08-21T01:34:38;95839.56;;;15.90;53.28
73671;BME280;61968;48.178;11.566;2022-08-21T01:37:05;95842.78;;;15.92;53.11
73671;BME280;61968;48.178;11.566;2022-08-21T01:39:33;95840.34;;;15.90;52.88
73671;BME280;61968;48.178;11.566;2022-08-21T01:42:00;95841.69;;;15.82;53.10
73671;BME280;61968;48.178;11.566;2022-08-21T01:44:27;95847.19;;;15.60;53.62
73671;BME280;61968;48.178;11.566;2022-08-21T01:46:55;95848.50;;;15.63;53.57
73671;BME280;61968;48.178;11.566;2022-08-21T01:49:21;95843.25;;;15.73;53.03
73671;BME280;61968;48.178;11.566;2022-08-21T01:51:48;95849.59;;;15.67;53.42
73671;BME280;61968;48.178;11.566;2022-08-21T01:54:14;95838.41;;;15.65;53.43
73671;BME280;61968;48.178;11.566;2022-08-21T01:56:45;95837.84;;;15.63;53.57
73671;BME280;61968;48.178;11.566;2022-08-21T01:59:12;95838.91;;;15.62;53.38
73671;BME280;61968;48.178;11.566;2022-08-21T02:01:39;95836.50;;;15.55;53.41
73671;BME280;61968;48.178;11.566;2022-08-21T02:04:06;95832.19;;;15.49;53.59
73671;BME280;61968;48.178;11.566;2022-08-21T02:06:34;95830.28;;;15.39;53.71
73671;BME280;61968;48.178;11.566;2022-08-21T02:09:00;95825.56;;;15.52;53.61
73671;BME280;61968;48.178;11.566;2022-08-21T02:11:27;95819.94;;;15.53;53.11
73671;BME280;61968;48.178;11.566;2022-08-21T02:13:55;95825.03;;;15.55;53.03
73671;BME280;61968;48.178;11.566;2022-08-21T02:16:22;95819.72;;;15.55;52.96
73671;BME280;61968;48.178;11.566;2022-08-21T02:18:48;95820.19;;;15.47;53.19
73671;BME280;61968;48.178;11.566;2022-08-21T02:21:15;95834.09;;;15.59;53.13
73671;BME280;61968;48.178;11.566;2022-08-21T02:23:41;95826.31;;;15.47;52.99
73671;BME280;61968;48.178;11.566;2022-08-21T02:26:08;95823.06;;;15.35;53.51
73671;BME280;61968;48.178;11.566;2022-08-21T02:28:36;95825.78;;;15.50;52.93
73671;BME280;61968;48.178;11.566;2022-08-21T02:31:05;95831.41;;;15.54;52.74
73671;BME280;61968;48.178;11.566;2022-08-21T02:33:32;95830.41;;;15.65;52.73
73671;BME280;61968;48.178;11.566;2022-08-21T02:35:58;95826.41;;;15.68;52.53
73671;BME280;61968;48.178;11.566;2022-08-21T02:38:27;95830.94;;;15.67;52.31
73671;BME280;61968;48.178;11.566;2022-08-21T02:40:55;95829.00;;;15.52;52.60
73671;BME280;61968;48.178;11.566;2022-08-21T02:43:23;95824.97;;;15.45;52.74
73671;BME280;61968;48.178;11.566;2022-08-21T02:45:51;95826.03;;;15.44;52.76
73671;BME280;61968;48.178;11.566;2022-08-21T02:48:22;95819.41;;;15.46;52.85
73671;BME280;61968;48.178;11.566;2022-08-21T02:50:53;95816.97;;;15.45;52.68
73671;BME280;61968;48.178;11.566;2022-08-21T02:53:20;95813.25;;;15.46;52.89
73671;BME280;61968;48.178;11.566;2022-08-21T02:55:49;95812.75;;;15.49;52.53
73671;BME280;61968;48.178;11.566;2022-08-21T02:58:18;95821.22;;;15.40;52.67
73671;BME280;61968;48.178;11.566;2022-08-21T03:00:46;95818.59;;;15.51;52.52
73671;BME280;61968;48.178;11.566;2022-08-21T03:03:13;95820.22;;;15.52;52.43
73671;BME280;61968;48.178;11.566;2022-08-21T03:05:42;95819.66;;;15.50;52.29
73671;BME280;61968;48.178;11.566;2022-08-21T03:08:11;95820.66;;;15.38;52.69
73671;BME280;61968;48.178;11.566;2022-08-21T03:10:38;95817.56;;;15.09;53.34
73671;BME280;61968;48.178;11.566;2022-08-21T03:13:06;95823.16;;;15.13;53.33
73671;BME280;61968;48.178;11.566;2022-08-21T03:15:33;95823.25;;;15.18;53.15
73671;BME280;61968;48.178;11.566;2022-08-21T03:18:01;95827.56;;;15.29;52.96
73671;BME280;61968;48.178;11.566;2022-08-21T03:20:29;95826.00;;;15.33;52.70
73671;BME280;61968;48.178;11.566;2022-08-21T03:22:59;95828.16;;;15.41;52.58
73671;BME280;61968;48.178;11.566;2022-08-21T03:25:27;95825.47;;;15.41;52.30
73671;BME280;61968;48.178;11.566;2022-08-21T03:27:54;95824.13;;;15.34;52.74
73671;BME280;61968;48.178;11.566;2022-08-21T03:30:21;95821.09;;;15.20;52.93
73671;BME280;61968;48.178;11.566;2022-08-21T03:32:48;95820.00;;;15.16;53.09
73671;BME280;61968;48.178;11.566;2022-08-21T03:35:16;95811.88;;;14.95;53.69
73671;BME280;61968;48.178;11.566;2022-08-21T03:37:43;95815.97;;;15.13;53.36
73671;BME280;61968;48.178;11.566;2022-08-21T03:40:13;95817.41;;;15.21;52.93
73671;BME280;61968;48.178;11.566;2022-08-21T03:42:40;95827.81;;;15.28;52.89
73671;BME280;61968;48.178;11.566;2022-08-21T03:45:08;95820.50;;;15.13;53.07
73671;BME280;61968;48.178;11.566;2022-08-21T03:47:35;95824.88;;;15.24;52.69
73671;BME280;61968;48.178;11.566;2022-08-21T03:50:02;95822.66;;;15.16;52.82
73671;BME280;61968;48.178;11.566;2022-08-21T03:52:29;95828.63;;;15.28;52.48
73671;BME280;61968;48.178;11.566;2022-08-21T03:54:56;95836.66;;;15.33;52.35
73671;BME280;61968;48.178;11.566;2022-08-21T03:57:24;95824.25;;;15.12;52.88
73671;BME280;61968;48.178;11.566;2022-08-21T03:59:50;95822.34;;;15.07;53.22
73671;BME280;61968;48.178;11.566;2022-08-21T04:02:18;95829.19;;;14.98;53.15
73671;BME280;61968;48.178;11.566;2022-08-21T04:04:47;95832.19;;;15.07;53.04
73671;BME280;61968;48.178;11.566;2022-08-21T04:07:13;95839.06;;;15.03;53.06
73671;BME280;61968;48.178;11.566;2022-08-21T04:09:40;95828.16;;;15.04;52.77
73671;BME280;61968;48.178;11.566;2022-08-21T04:12:07;95827.88;;;15.01;52.88
73671;BME280;61968;48.178;11.566;2022-08-21T04:14:34;95828.31;;;14.87;53.22
73671;BME280;61968;48.178;11.566;2022-08-21T04:17:01;95834.28;;;15.05;53.06
73671;BME280;61968;48.178;11.566;2022-08-21T04:19:27;95834.56;;;15.03;52.96
73671;BME280;61968;48.178;11.566;2022-08-21T04:21:54;95839.63;;;15.05;52.80
73671;BME280;61968;48.178;11.566;2022-08-21T04:24:20;95844.94;;;15.05;52.67
73671;BME280;61968;48.178;11.566;2022-08-21T04:26:47;95835.38;;;15.04;52.72
73671;BME280;61968;48.178;11.566;2022-08-21T04:29:13;95843.25;;;14.93;52.84
73671;BME280;61968;48.178;11.566;2022-08-21T04:31:41;95845.16;;;14.98;52.79
73671;BME280;61968;48.178;11.566;2022-08-21T04:34:08;95853.97;;;14.99;52.73
73671;BME280;61968;48.178;11.566;2022-08-21T04:36:35;95852.38;;;15.03;52.71
73671;BME280;61968;48.178;11.566;2022-08-21T04:39:02;95861.31;;;14.86;53.07
73671;BME280;61968;48.178;11.566;2022-08-21T04:41:29;95862.41;;;14.90;53.03
73671;BME280;61968;48.178;11.566;2022-08-21T04:43:55;95857.19;;;15.06;52.50
73671;BME280;61968;48.178;11.566;2022-08-21T04:46:22;95861.69;;;15.00;52.54
73671;BME280;61968;48.178;11.566;2022-08-21T04:48:50;95864.38;;;15.00;52.49
73671;BME280;61968;48.178;11.566;2022-08-21T04:51:19;95868.34;;;14.98;52.62
73671;BME280;61968;48.178;11.566;2022-08-21T04:53:51;95866.66;;;14.86;52.67
73671;BME280;61968;48.178;11.566;2022-08-21T04:56:20;95868.72;;;14.79;53.16
73671;BME280;61968;48.178;11.566;2022-08-21T04:58:48;95872.31;;;14.95;52.61
73671;BME280;61968;48.178;11.566;2022-08-21T05:01:21;95870.38;;;14.90;52.61
73671;BME280;61968;48.178;11.566;2022-08-21T05:03:52;95868.06;;;14.94;52.47
73671;BME280;61968;48.178;11.566;2022-08-21T05:06:20;95863.53;;;15.00;52.23
73671;BME280;61968;48.178;11.566;2022-08-21T05:08:49;95867.78;;;14.95;52.40
73671;BME280;61968;48.178;11.566;2022-08-21T05:11:18;95864.78;;;14.87;52.88
73671;BME280;61968;48.178;11.566;2022-08-21T05:13:45;95864.94;;;14.75;52.92
73671;BME280;61968;48.178;11.566;2022-08-21T05:16:12;95864.78;;;14.87;52.87
73671;BME280;61968;48.178;11.566;2022-08-21T05:18:46;95867.09;;;14.78;53.21
73671;BME280;61968;48.178;11.566;2022-08-21T05:21:16;95865.44;;;14.67;53.52
73671;BME280;61968;48.178;11.566;2022-08-21T05:23:42;95864.31;;;14.63;53.50
73671;BME280;61968;48.178;11.566;2022-08-21T05:26:09;95865.78;;;14.76;53.27
73671;BME280;61968;48.178;11.566;2022-08-21T05:28:35;95875.72;;;14.90;52.86
73671;BME280;61968;48.178;11.566;2022-08-21T05:31:01;95872.75;;;14.82;53.22
73671;BME280;61968;48.178;11.566;2022-08-21T05:33:28;95876.22;;;14.87;52.98
73671;BME280;61968;48.178;11.566;2022-08-21T05:35:54;95877.06;;;14.93;52.92
73671;BME280;61968;48.178;11.566;2022-08-21T05:38:24;95881.03;;;14.90;52.99
73671;BME280;61968;48.178;11.566;2022-08-21T05:40:52;95883.81;;;15.01;52.71
73671;BME280;61968;48.178;11.566;2022-08-21T05:43:19;95882.78;;;15.07;52.67
73671;BME280;61968;48.178;11.566;2022-08-21T05:45:46;95885.78;;;15.15;52.41
73671;BME280;61968;48.178;11.566;2022-08-21T05:48:14;95889.59;;;15.25;52.34
73671;BME280;61968;48.178;11.566;2022-08-21T05:50:41;95889.34;;;15.26;52.38
73671;BME280;61968;48.178;11.566;2022-08-21T05:53:08;95885.97;;;15.04;52.88
73671;BME280;61968;48.178;11.566;2022-08-21T05:55:37;95888.69;;;15.14;52.74
73671;BME280;61968;48.178;11.566;2022-08-21T05:58:04;95894.66;;;15.26;52.47
73671;BME280;61968;48.178;11.566;2022-08-21T06:00:31;95894.38;;;15.23;52.44
73671;BME280;61968;48.178;11.566;2022-08-21T06:02:59;95893.63;;;15.32;52.52
73671;BME280;61968;48.178;11.566;2022-08-21T06:05:26;95890.78;;;15.44;52.26
73671;BME280;61968;48.178;11.566;2022-08-21T06:07:52;95886.03;;;15.51;51.86
73671;BME280;61968;48.178;11.566;2022-08-21T06:10:19;95885.81;;;15.58;52.04
73671;BME280;61968;48.178;11.566;2022-08-21T06:12:52;95889.00;;;15.55;52.01
73671;BME280;61968;48.178;11.566;2022-08-21T06:15:19;95885.78;;;15.53;51.95
73671;BME280;61968;48.178;11.566;2022-08-21T06:17:45;95899.19;;;15.68;51.86
73671;BME280;61968;48.178;11.566;2022-08-21T06:20:12;95888.03;;;15.76;51.65
73671;BME280;61968;48.178;11.566;2022-08-21T06:22:38;95889.06;;;15.75;51.81
73671;BME280;61968;48.178;11.566;2022-08-21T06:25:05;95896.34;;;15.85;51.53
73671;BME280;61968;48.178;11.566;2022-08-21T06:27:32;95887.41;;;15.59;51.80
73671;BME280;61968;48.178;11.566;2022-08-21T06:29:59;95889.03;;;15.65;51.80
73671;BME280;61968;48.178;11.566;2022-08-21T06:32:26;95902.16;;;15.77;51.97
73671;BME280;61968;48.178;11.566;2022-08-21T06:34:52;95889.19;;;15.91;51.34
73671;BME280;61968;48.178;11.566;2022-08-21T06:37:19;95899.63;;;15.97;51.02
73671;BME280;61968;48.178;11.566;2022-08-21T06:39:45;95893.50;;;16.02;51.07
73671;BME280;61968;48.178;11.566;2022-08-21T06:42:13;95893.56;;;16.12;50.92
73671;BME280;61968;48.178;11.566;2022-08-21T06:44:40;95888.22;;;16.17;50.95
73671;BME280;61968;48.178;11.566;2022-08-21T06:47:08;95879.63;;;16.05;51.15
73671;BME280;61968;48.178;11.566;2022-08-21T06:49:34;95890.81;;;16.02;51.01
73671;BME280;61968;48.178;11.566;2022-08-21T06:52:01;95887.38;;;16.01;50.61
73671;BME280;61968;48.178;11.566;2022-08-21T06:54:28;95883.91;;;16.01;50.10
73671;BME280;61968;48.178;11.566;2022-08-21T06:56:56;95876.66;;;15.96;50.16
73671;BME280;61968;48.178;11.566;2022-08-21T06:59:22;95879.63;;;16.05;50.19
73671;BME280;61968;48.178;11.566;2022-08-21T07:01:48;95875.63;;;15.97;49.95
73671;BME280;61968;48.178;11.566;2022-08-21T07:04:16;95878.72;;;15.84;49.56
73671;BME280;61968;48.178;11.566;2022-08-21T07:06:43;95874.84;;;15.97;49.94
73671;BME280;61968;48.178;11.566;2022-08-21T07:09:09;95872.19;;;16.07;49.05
73671;BME280;61968;48.178;11.566;2022-08-21T07:11:36;95879.13;;;16.08;48.85
73671;BME280;61968;48.178;11.566;2022-08-21T07:14:03;95880.22;;;15.59;49.10
73671;BME280;61968;48.178;11.566;2022-08-21T07:16:30;95879.25;;;15.81;49.44
73671;BME280;61968;48.178;11.566;2022-08-21T07:18:57;95877.25;;;16.03;47.87
73671;BME280;61968;48.178;11.566;2022-08-21T07:21:24;95871.16;;;16.23;47.94
73671;BME280;61968;48.178;11.566;2022-08-21T07:23:51;95874.41;;;16.41;47.81
73671;BME280;61968;48.178;11.566;2022-08-21T07:26:21;95874.97;;;16.43;47.63
73671;BME280;61968;48.178;11.566;2022-08-21T07:28:48;95876.03;;;16.52;47.78
73671;BME280;61968;48.178;11.566;2022-08-21T07:31:16;95871.44;;;16.32;48.22
73671;BME280;61968;48.178;11.566;2022-08-21T07:33:43;95866.41;;;16.46;48.23
73671;BME280;61968;48.178;11.566;2022-08-21T07:36:10;95867.75;;;16.53;47.92
73671;BME280;61968;48.178;11.566;2022-08-21T07:38:38;95873.13;;;16.64;47.66
73671;BME280;61968;48.178;11.566;2022-08-21T07:41:10;95864.84;;;16.55;47.84
73671;BME280;61968;48.178;11.566;2022-08-21T07:43:39;95872.38;;;16.79;47.22
73671;BME280;61968;48.178;11.566;2022-08-21T07:46:05;95863.81;;;16.82;47.17
73671;BME280;61968;48.178;11.566;2022-08-21T07:48:32;95869.94;;;16.77;47.12
73671;BME280;61968;48.178;11.566;2022-08-21T07:51:01;95861.63;;;16.68;47.10
73671;BME280;61968;48.178;11.566;2022-08-21T07:53:28;95865.66;;;16.81;46.72
73671;BME280;61968;48.178;11.566;2022-08-21T07:55:58;95861.94;;;16.82;46.65
73671;BME280;61968;48.178;11.566;2022-08-21T07:58:24;95857.16;;;16.79;46.23
73671;BME280;61968;48.178;11.566;2022-08-21T08:00:51;95853.94;;;16.97;46.46
73671;BME280;61968;48.178;11.566;2022-08-21T08:03:17;95849.13;;;17.10;45.80
73671;BME280;61968;48.178;11.566;2022-08-21T08:05:44;95850.44;;;17.12;45.14
73671;BME280;61968;48.178;11.566;2022-08-21T08:08:10;95855.25;;;16.95;45.52
73671;BME280;61968;48.178;11.566;2022-08-21T08:10:37;95857.38;;;16.93;45.82
73671;BME280;61968;48.178;11.566;2022-08-21T08:13:05;95857.91;;;16.64;46.40
73671;BME280;61968;48.178;11.566;2022-08-21T08:15:32;95858.97;;;16.63;46.96
73671;BME280;61968;48.178;11.566;2022-08-21T08:17:58;95854.19;;;16.70;46.78
73671;BME280;61968;48.178;11.566;2022-08-21T08:20:26;95854.22;;;16.91;46.72
73671;BME280;61968;48.178;11.566;2022-08-21T08:22:52;95851.25;;;17.13;46.43
73671;BME280;61968;48.178;11.566;2022-08-21T08:25:20;95856.03;;;17.26;46.09
73671;BME280;61968;48.178;11.566;2022-08-21T08:27:47;95847.75;;;17.28;45.99
73671;BME280;61968;48.178;11.566;2022-08-21T08:30:17;95848.84;;;17.42;45.44
73671;BME280;61968;48.178;11.566;2022-08-21T08:32:44;95846.13;;;17.52;45.58
73671;BME280;61968;48.178;11.566;2022-08-21T08:35:11;95848.03;;;17.21;45.22
73671;BME280;61968;48.178;11.566;2022-08-21T08:37:38;95846.66;;;17.34;45.10
73671;BME280;61968;48.178;11.566;2022-08-21T08:40:09;95839.97;;;17.41;44.39
73671;BME280;61968;48.178;11.566;2022-08-21T08:42:36;95845.59;;;17.30;45.15
73671;BME280;61968;48.178;11.566;2022-08-21T08:45:05;95845.34;;;17.31;45.77
73671;BME280;61968;48.178;11.566;2022-08-21T08:47:37;95840.25;;;17.40;45.63
73671;BME280;61968;48.178;11.566;2022-08-21T08:50:06;95842.34;;;17.58;45.21
73671;BME280;61968;48.178;11.566;2022-08-21T08:52:36;95834.88;;;17.55;45.63
73671;BME280;61968;48.178;11.566;2022-08-21T08:55:05;95845.47;;;17.81;45.19
73671;BME280;61968;48.178;11.566;2022-08-21T08:57:32;95845.84;;;17.54;45.86
73671;BME280;61968;48.178;11.566;2022-08-21T09:00:04;95839.44;;;17.39;46.19
73671;BME280;61968;48.178;11.566;2022-08-21T09:02:31;95850.41;;;17.22;47.06
73671;BME280;61968;48.178;11.566;2022-08-21T09:05:00;95848.03;;;17.11;47.36
73671;BME280;61968;48.178;11.566;2022-08-21T09:10:21;95835.91;;;17.64;46.69
73671;BME280;61968;48.178;11.566;2022-08-21T09:12:53;95842.47;;;17.92;46.10
73671;BME280;61968;48.178;11.566;2022-08-21T09:15:29;95840.34;;;17.89;46.47
73671;BME280;61968;48.178;11.566;2022-08-21T09:18:28;95835.78;;;18.00;46.75
73671;BME280;61968;48.178;11.566;2022-08-21T09:21:09;95843.44;;;18.27;46.09
73671;BME280;61968;48.178;11.566;2022-08-21T09:23:43;95836.81;;;18.09;45.40
73671;BME280;61968;48.178;11.566;2022-08-21T09:26:14;95837.25;;;17.62;47.21
73671;BME280;61968;48.178;11.566;2022-08-21T09:28:41;95831.78;;;17.98;46.61
73671;BME280;61968;48.178;11.566;2022-08-21T09:31:12;95831.97;;;18.11;45.90
73671;BME280;61968;48.178;11.566;2022-08-21T09:33:41;95839.66;;;18.28;46.41
73671;BME280;61968;48.178;11.566;2022-08-21T09:36:09;95841.84;;;18.11;46.56
73671;BME280;61968;48.178;11.566;2022-08-21T09:38:36;95842.78;;;18.46;46.01
73671;BME280;61968;48.178;11.566;2022-08-21T09:41:06;95840.53;;;18.58;45.74
73671;BME280;61968;48.178;11.566;2022-08-21T09:43:34;95833.88;;;18.50;45.55
73671;BME280;61968;48.178;11.566;2022-08-21T09:46:08;95831.72;;;18.57;45.42
73671;BME280;61968;48.178;11.566;2022-08-21T09:48:41;95833.78;;;18.26;45.80
73671;BME280;61968;48.178;11.566;2022-08-21T09:51:11;95830.94;;;18.02;46.40
73671;BME280;61968;48.178;11.566;2022-08-21T09:53:42;95828.19;;;18.23;45.71
73671;BME280;61968;48.178;11.566;2022-08-21T09:56:19;95827.25;;;18.48;45.71
73671;BME280;61968;48.178;11.566;2022-08-21T09:59:13;95823.56;;;18.73;45.53
73671;BME280;61968;48.178;11.566;2022-08-21T10:01:43;95824.63;;;18.72;45.37
73671;BME280;61968;48.178;11.566;2022-08-21T10:04:10;95825.13;;;18.84;45.58
73671;BME280;61968;48.178;11.566;2022-08-21T10:06:39;95823.44;;;18.93;45.50
73671;BME280;61968;48.178;11.566;2022-08-21T10:09:07;95819.66;;;18.94;46.07
73671;BME280;61968;48.178;11.566;2022-08-21T10:11:35;95819.63;;;18.99;45.17
73671;BME280;61968;48.178;11.566;2022-08-21T10:14:12;95821.66;;;18.78;45.86
73671;BME280;61968;48.178;11.566;2022-08-21T10:16:51;95823.72;;;18.52;45.89
73671;BME280;61968;48.178;11.566;2022-08-21T10:19:26;95823.72;;;18.52;45.62
73671;BME280;61968;48.178;11.566;2022-08-21T10:22:02;95824.50;;;18.53;45.93
73671;BME280;61968;48.178;11.566;2022-08-21T10:24:40;95817.41;;;18.72;45.14
73671;BME280;61968;48.178;11.566;2022-08-21T10:27:16;95818.56;;;18.61;45.55
73671;BME280;61968;48.178;11.566;2022-08-21T10:29:53;95816.75;;;18.51;46.07
73671;BME280;61968;48.178;11.566;2022-08-21T10:32:37;95820.56;;;18.85;45.95
73671;BME280;61968;48.178;11.566;2022-08-21T10:35:11;95813.63;;;19.08;45.61
73671;BME280;61968;48.178;11.566;2022-08-21T10:37:48;95814.50;;;19.03;46.16
73671;BME280;61968;48.178;11.566;2022-08-21T10:40:22;95819.22;;;19.11;45.53
73671;BME280;61968;48.178;11.566;2022-08-21T10:42:58;95816.47;;;19.21;45.10
73671;BME280;61968;48.178;11.566;2022-08-21T10:45:38;95809.81;;;19.14;45.28
73671;BME280;61968;48.178;11.566;2022-08-21T10:48:16;95814.22;;;19.28;45.43
73671;BME280;61968;48.178;11.566;2022-08-21T10:50:50;95811.97;;;19.41;45.54
73671;BME280;61968;48.178;11.566;2022-08-21T10:53:35;95804.63;;;19.52;45.00
73671;BME280;61968;48.178;11.566;2022-08-21T10:56:13;95799.88;;;19.67;43.90
73671;BME280;61968;48.178;11.566;2022-08-21T10:58:50;95802.53;;;19.72;43.99
73671;BME280;61968;48.178;11.566;2022-08-21T11:01:24;95793.72;;;19.43;44.36
73671;BME280;61968;48.178;11.566;2022-08-21T11:04:07;95786.41;;;19.24;45.29
73671;BME280;61968;48.178;11.566;2022-08-21T11:06:37;95798.09;;;19.34;44.77
73671;BME280;61968;48.178;11.566;2022-08-21T11:09:11;95790.84;;;19.34;43.50
73671;BME280;61968;48.178;11.566;2022-08-21T11:11:42;95790.59;;;19.60;42.72
73671;BME280;61968;48.178;11.566;2022-08-21T11:14:25;95789.75;;;19.83;42.51
73671;BME280;61968;48.178;11.566;2022-08-21T11:17:05;95786.75;;;20.09;42.51
73671;BME280;61968;48.178;11.566;2022-08-21T11:19:39;95775.91;;;19.95;40.14
73671;BME280;61968;48.178;11.566;2022-08-21T11:22:13;95787.03;;;20.07;41.08
73671;BME280;61968;48.178;11.566;2022-08-21T11:24:49;95788.00;;;20.16;40.38
73671;BME280;61968;48.178;11.566;2022-08-21T11:27:21;95781.47;;;20.23;38.98
73671;BME280;61968;48.178;11.566;2022-08-21T11:29:51;95780.06;;;20.44;39.98
73671;BME280;61968;48.178;11.566;2022-08-21T11:32:33;95778.03;;;20.55;38.27
73671;BME280;61968;48.178;11.566;2022-08-21T11:35:10;95771.91;;;20.68;37.94
73671;BME280;61968;48.178;11.566;2022-08-21T11:37:48;95758.53;;;20.82;38.69
73671;BME280;61968;48.178;11.566;2022-08-21T11:40:34;95766.84;;;20.67;37.65
73671;BME280;61968;48.178;11.566;2022-08-21T11:43:10;95765.28;;;20.79;34.78
73671;BME280;61968;48.178;11.566;2022-08-21T11:45:44;95766.19;;;20.56;33.67
73671;BME280;61968;48.178;11.566;2022-08-21T11:48:33;95767.63;;;20.67;35.39
73671;BME280;61968;48.178;11.566;2022-08-21T11:51:08;95768.00;;;20.60;36.03
73671;BME280;61968;48.178;11.566;2022-08-21T11:53:39;95762.81;;;20.83;35.65
73671;BME280;61968;48.178;11.566;2022-08-21T11:56:15;95752.16;;;20.78;34.36
73671;BME280;61968;48.178;11.566;2022-08-21T11:58:45;95756.59;;;21.15;34.51
73671;BME280;61968;48.178;11.566;2022-08-21T12:01:17;95753.31;;;21.32;34.60
73671;BME280;61968;48.178;11.566;2022-08-21T12:03:53;95750.47;;;21.42;34.96
73671;BME280;61968;48.178;11.566;2022-08-21T12:06:29;95744.84;;;21.39;29.06
73671;BME280;61968;48.178;11.566;2022-08-21T12:08:58;95745.06;;;21.42;28.81
73671;BME280;61968;48.178;11.566;2022-08-21T12:11:27;95739.16;;;21.40;29.57
73671;BME280;61968;48.178;11.566;2022-08-21T12:13:56;95742.59;;;21.46;32.04
73671;BME280;61968;48.178;11.566;2022-08-21T12:16:32;95748.22;;;21.30;33.28
73671;BME280;61968;48.178;11.566;2022-08-21T12:19:06;95737.81;;;21.43;34.12
73671;BME280;61968;48.178;11.566;2022-08-21T12:21:33;95737.25;;;21.68;34.07
73671;BME280;61968;48.178;11.566;2022-08-21T12:24:04;95738.88;;;21.69;33.95
73671;BME280;61968;48.178;11.566;2022-08-21T12:26:35;95732.56;;;21.74;33.15
73671;BME280;61968;48.178;11.566;2022-08-21T12:29:15;95739.53;;;21.89;32.85
73671;BME280;61968;48.178;11.566;2022-08-21T12:31:53;95735.81;;;21.98;32.48
73671;BME280;61968;48.178;11.566;2022-08-21T12:34:23;95734.94;;;21.89;33.45
73671;BME280;61968;48.178;11.566;2022-08-21T12:36:54;95734.94;;;22.03;33.32
73671;BME280;61968;48.178;11.566;2022-08-21T12:39:25;95727.38;;;22.05;32.68
73671;BME280;61968;48.178;11.566;2022-08-21T12:41:59;95723.06;;;22.04;30.73
73671;BME280;61968;48.178;11.566;2022-08-21T12:44:32;95723.69;;;22.24;30.68
73671;BME280;61968;48.178;11.566;2022-08-21T12:47:05;95722.34;;;22.35;31.56
73671;BME280;61968;48.178;11.566;2022-08-21T12:49:34;95716.91;;;22.26;29.63
73671;BME280;61968;48.178;11.566;2022-08-21T12:52:07;95716.53;;;22.19;30.77
73671;BME280;61968;48.178;11.566;2022-08-21T12:54:38;95713.53;;;22.20;31.13
73671;BME280;61968;48.178;11.566;2022-08-21T12:57:08;95711.50;;;22.04;31.82
73671;BME280;61968;48.178;11.566;2022-08-21T12:59:37;95711.81;;;22.25;32.47
73671;BME280;61968;48.178;11.566;2022-08-21T13:02:05;95708.50;;;22.28;31.49
73671;BME280;61968;48.178;11.566;2022-08-21T13:04:40;95698.09;;;22.35;31.63